sensor_id;sensor_type;location;lat;lon;timestamp;P1;durP1;ratioP1;P2;durP2;ratioP2
1024;SDS011;501;48.214;11.350;2022-12-18T00:00:57;35.73;;;19.00;;
1024;SDS011;501;48.214;11.350;2022-12-18T00:03:23;39.27;;;20.70;;
1024;SDS011;501;48.214;11.350;2022-12-18T00:05:50;42.10;;;20.37;;
1024;SDS011;501;48.214;11.350;2022-12-18T00:08:16;40.90;;;19.10;;
1024;SDS011;501;48.214;11.350;2022-12-18T00:10:42;38.53;;;20.00;;
1024;SDS011;501;48.214;11.350;2022-12-18T00:13:08;39.57;;;20.37;;
1024;SDS011;501;48.214;11.350;2022-12-18T00:15:35;37.60;;;19.47;;
1024;SDS011;501;48.214;11.350;2022-12-18T00:18:01;44.30;;;20.50;;
1024;SDS011;501;48.214;11.350;2022-12-18T00:20:27;54.17;;;28.77;;
1024;SDS011;501;48.214;11.350;2022-12-18T00:22:53;62.83;;;31.13;;
1024;SDS011;501;48.214;11.350;2022-12-18T00:25:19;59.57;;;30.37;;
1024;SDS011;501;48.214;11.350;2022-12-18T00:27:45;54.77;;;28.03;;
1024;SDS011;501;48.214;11.350;2022-12-18T00:30:10;67.33;;;30.17;;
1024;SDS011;501;48.214;11.350;2022-12-18T00:32:36;54.50;;;27.07;;
1024;SDS011;501;48.214;11.350;2022-12-18T00:35:02;48.87;;;27.30;;
1024;SDS011;501;48.214;11.350;2022-12-18T00:37:29;63.63;;;29.13;;
1024;SDS011;501;48.214;11.350;2022-12-18T00:39:54;51.90;;;25.33;;
1024;SDS011;501;48.214;11.350;2022-12-18T00:42:20;40.03;;;19.50;;
1024;SDS011;501;48.214;11.350;2022-12-18T00:45:04;45.80;;;22.33;;
1024;SDS011;501;48.214;11.350;2022-12-18T00:47:30;47.30;;;21.27;;
1024;SDS011;501;48.214;11.350;2022-12-18T00:49:55;40.80;;;20.23;;
1024;SDS011;501;48.214;11.350;2022-12-18T00:52:21;42.47;;;19.60;;
1024;SDS011;501;48.214;11.350;2022-12-18T00:54:47;38.03;;;20.70;;
1024;SDS011;501;48.214;11.350;2022-12-18T00:57:12;42.70;;;21.30;;
1024;SDS011;501;48.214;11.350;2022-12-18T00:59:38;38.93;;;23.47;;
1024;SDS011;501;48.214;11.350;2022-12-18T01:02:03;44.60;;;21.03;;
1024;SDS011;501;48.214;11.350;2022-12-18T01:04:31;45.50;;;20.37;;
1024;SDS011;501;48.214;11.350;2022-12-18T01:06:57;37.80;;;21.57;;
1024;SDS011;501;48.214;11.350;2022-12-18T01:09:22;42.47;;;21.13;;
1024;SDS011;501;48.214;11.350;2022-12-18T01:11:48;40.70;;;21.53;;
1024;SDS011;501;48.214;11.350;2022-12-18T01:14:14;49.53;;;22.30;;
1024;SDS011;501;48.214;11.350;2022-12-18T01:16:39;50.20;;;21.13;;
1024;SDS011;501;48.214;11.350;2022-12-18T01:19:05;42.63;;;21.97;;
1024;SDS011;501;48.214;11.350;2022-12-18T01:21:31;37.03;;;20.73;;
1024;SDS011;501;48.214;11.350;2022-12-18T01:23:56;47.47;;;22.20;;
1024;SDS011;501;48.214;11.350;2022-12-18T01:26:23;45.30;;;21.17;;
1024;SDS011;501;48.214;11.350;2022-12-18T01:28:49;43.33;;;21.57;;
1024;SDS011;501;48.214;11.350;2022-12-18T01:31:19;46.93;;;22.40;;
1024;SDS011;501;48.214;11.350;2022-12-18T01:33:46;61.37;;;22.40;;
1024;SDS011;501;48.214;11.350;2022-12-18T01:36:24;38.00;;;17.87;;
1024;SDS011;501;48.214;11.350;2022-12-18T01:38:54;40.53;;;20.50;;
1024;SDS011;501;48.214;11.350;2022-12-18T01:41:22;38.73;;;18.47;;
1024;SDS011;501;48.214;11.350;2022-12-18T01:43:53;36.43;;;17.80;;
1024;SDS011;501;48.214;11.350;2022-12-18T01:46:22;41.77;;;18.90;;
1024;SDS011;501;48.214;11.350;2022-12-18T01:48:51;43.10;;;19.90;;
1024;SDS011;501;48.214;11.350;2022-12-18T01:51:26;39.90;;;19.13;;
1024;SDS011;501;48.214;11.350;2022-12-18T01:53:54;43.67;;;17.50;;
1024;SDS011;501;48.214;11.350;2022-12-18T01:56:20;34.43;;;15.97;;
1024;SDS011;501;48.214;11.350;2022-12-18T01:58:58;43.17;;;19.27;;
1024;SDS011;501;48.214;11.350;2022-12-18T02:01:27;39.77;;;19.23;;
1024;SDS011;501;48.214;11.350;2022-12-18T02:03:55;36.67;;;17.07;;
1024;SDS011;501;48.214;11.350;2022-12-18T02:06:44;37.67;;;16.70;;
1024;SDS011;501;48.214;11.350;2022-12-18T02:09:14;35.80;;;17.80;;
1024;SDS011;501;48.214;11.350;2022-12-18T02:22:25;37.83;;;20.03;;
1024;SDS011;501;48.214;11.350;2022-12-18T02:27:39;40.83;;;17.97;;
1024;SDS011;501;48.214;11.350;2022-12-18T02:30:06;45.20;;;18.97;;
1024;SDS011;501;48.214;11.350;2022-12-18T02:32:37;49.83;;;20.30;;
1024;SDS011;501;48.214;11.350;2022-12-18T02:35:07;44.97;;;21.57;;
1024;SDS011;501;48.214;11.350;2022-12-18T02:37:36;38.20;;;18.70;;
1024;SDS011;501;48.214;11.350;2022-12-18T02:40:04;44.60;;;19.77;;
1024;SDS011;501;48.214;11.350;2022-12-18T02:42:30;39.37;;;18.73;;
1024;SDS011;501;48.214;11.350;2022-12-18T02:44:57;41.00;;;19.43;;
1024;SDS011;501;48.214;11.350;2022-12-18T02:47:24;36.00;;;18.47;;
1024;SDS011;501;48.214;11.350;2022-12-18T02:50:10;37.03;;;19.80;;
1024;SDS011;501;48.214;11.350;2022-12-18T02:53:00;37.37;;;17.60;;
1024;SDS011;501;48.214;11.350;2022-12-18T02:55:47;42.23;;;18.97;;
1024;SDS011;501;48.214;11.350;2022-12-18T03:01:01;44.83;;;19.40;;
1024;SDS011;501;48.214;11.350;2022-12-18T03:03:40;48.60;;;19.77;;
1024;SDS011;501;48.214;11.350;2022-12-18T03:06:30;49.17;;;19.57;;
1024;SDS011;501;48.214;11.350;2022-12-18T03:09:02;44.03;;;21.17;;
1024;SDS011;501;48.214;11.350;2022-12-18T03:11:33;39.70;;;19.20;;
1024;SDS011;501;48.214;11.350;2022-12-18T03:14:21;36.20;;;18.43;;
1024;SDS011;501;48.214;11.350;2022-12-18T03:16:49;40.93;;;18.20;;
1024;SDS011;501;48.214;11.350;2022-12-18T03:19:18;47.57;;;20.93;;
1024;SDS011;501;48.214;11.350;2022-12-18T03:21:47;39.63;;;19.37;;
1024;SDS011;501;48.214;11.350;2022-12-18T03:24:17;43.37;;;19.63;;
1024;SDS011;501;48.214;11.350;2022-12-18T03:26:46;41.53;;;20.10;;
1024;SDS011;501;48.214;11.350;2022-12-18T03:29:19;44.03;;;21.13;;
1024;SDS011;501;48.214;11.350;2022-12-18T03:31:53;39.20;;;19.00;;
1024;SDS011;501;48.214;11.350;2022-12-18T03:34:24;45.60;;;19.87;;
1024;SDS011;501;48.214;11.350;2022-12-18T03:36:54;40.50;;;20.43;;
1024;SDS011;501;48.214;11.350;2022-12-18T03:39:20;43.47;;;22.10;;
1024;SDS011;501;48.214;11.350;2022-12-18T03:41:56;42.27;;;20.00;;
1024;SDS011;501;48.214;11.350;2022-12-18T03:44:30;42.93;;;17.60;;
1024;SDS011;501;48.214;11.350;2022-12-18T03:47:33;45.70;;;20.07;;
1024;SDS011;501;48.214;11.350;2022-12-18T03:52:37;48.63;;;22.40;;
1024;SDS011;501;48.214;11.350;2022-12-18T03:55:08;38.03;;;19.53;;
1024;SDS011;501;48.214;11.350;2022-12-18T03:57:35;44.23;;;20.43;;
1024;SDS011;501;48.214;11.350;2022-12-18T04:00:07;47.97;;;22.43;;
1024;SDS011;501;48.214;11.350;2022-12-18T04:02:35;45.60;;;21.80;;
1024;SDS011;501;48.214;11.350;2022-12-18T04:05:05;40.00;;;21.23;;
1024;SDS011;501;48.214;11.350;2022-12-18T04:07:33;49.03;;;21.57;;
1024;SDS011;501;48.214;11.350;2022-12-18T04:09:59;52.97;;;21.53;;
1024;SDS011;501;48.214;11.350;2022-12-18T04:12:28;46.47;;;21.70;;
1024;SDS011;501;48.214;11.350;2022-12-18T04:14:54;49.33;;;20.77;;
1024;SDS011;501;48.214;11.350;2022-12-18T04:17:20;42.20;;;20.73;;
1024;SDS011;501;48.214;11.350;2022-12-18T04:19:46;50.70;;;22.83;;
1024;SDS011;501;48.214;11.350;2022-12-18T04:22:11;54.47;;;22.17;;
1024;SDS011;501;48.214;11.350;2022-12-18T04:24:37;45.47;;;22.10;;
1024;SDS011;501;48.214;11.350;2022-12-18T04:27:03;46.90;;;20.53;;
1024;SDS011;501;48.214;11.350;2022-12-18T04:29:30;41.53;;;20.40;;
1024;SDS011;501;48.214;11.350;2022-12-18T04:31:55;40.73;;;18.80;;
1024;SDS011;501;48.214;11.350;2022-12-18T04:34:21;42.47;;;17.63;;
1024;SDS011;501;48.214;11.350;2022-12-18T04:36:47;49.27;;;22.17;;
1024;SDS011;501;48.214;11.350;2022-12-18T04:39:13;45.77;;;20.00;;
1024;SDS011;501;48.214;11.350;2022-12-18T04:41:42;51.57;;;21.67;;
1024;SDS011;501;48.214;11.350;2022-12-18T04:44:08;38.90;;;20.67;;
1024;SDS011;501;48.214;11.350;2022-12-18T04:46:33;41.40;;;19.13;;
1024;SDS011;501;48.214;11.350;2022-12-18T04:48:59;38.10;;;19.50;;
1024;SDS011;501;48.214;11.350;2022-12-18T04:51:24;41.23;;;19.90;;
1024;SDS011;501;48.214;11.350;2022-12-18T04:53:50;39.40;;;20.20;;
1024;SDS011;501;48.214;11.350;2022-12-18T04:56:16;54.30;;;21.03;;
1024;SDS011;501;48.214;11.350;2022-12-18T04:58:42;46.57;;;22.40;;
1024;SDS011;501;48.214;11.350;2022-12-18T05:01:09;43.13;;;22.00;;
1024;SDS011;501;48.214;11.350;2022-12-18T05:03:36;46.00;;;21.10;;
1024;SDS011;501;48.214;11.350;2022-12-18T05:06:03;46.43;;;20.70;;
1024;SDS011;501;48.214;11.350;2022-12-18T05:08:30;46.30;;;22.07;;
1024;SDS011;501;48.214;11.350;2022-12-18T05:11:03;41.53;;;19.03;;
1024;SDS011;501;48.214;11.350;2022-12-18T05:13:31;39.17;;;18.40;;
1024;SDS011;501;48.214;11.350;2022-12-18T05:15:57;42.23;;;20.00;;
1024;SDS011;501;48.214;11.350;2022-12-18T05:18:23;49.67;;;19.27;;
1024;SDS011;501;48.214;11.350;2022-12-18T05:20:52;44.53;;;20.93;;
1024;SDS011;501;48.214;11.350;2022-12-18T05:23:19;45.00;;;18.77;;
1024;SDS011;501;48.214;11.350;2022-12-18T05:25:53;39.63;;;19.60;;
1024;SDS011;501;48.214;11.350;2022-12-18T05:28:20;42.80;;;18.77;;
1024;SDS011;501;48.214;11.350;2022-12-18T05:31:05;41.83;;;19.47;;
1024;SDS011;501;48.214;11.350;2022-12-18T05:33:31;45.80;;;19.57;;
1024;SDS011;501;48.214;11.350;2022-12-18T05:35:59;39.77;;;17.97;;
1024;SDS011;501;48.214;11.350;2022-12-18T05:38:26;39.23;;;20.70;;
1024;SDS011;501;48.214;11.350;2022-12-18T05:40:53;37.03;;;17.90;;
1024;SDS011;501;48.214;11.350;2022-12-18T05:43:19;40.30;;;17.97;;
1024;SDS011;501;48.214;11.350;2022-12-18T05:45:49;34.07;;;17.90;;
1024;SDS011;501;48.214;11.350;2022-12-18T05:48:15;41.10;;;18.10;;
1024;SDS011;501;48.214;11.350;2022-12-18T05:50:42;33.17;;;16.53;;
1024;SDS011;501;48.214;11.350;2022-12-18T05:53:13;35.10;;;16.90;;
1024;SDS011;501;48.214;11.350;2022-12-18T05:55:40;38.87;;;18.90;;
1024;SDS011;501;48.214;11.350;2022-12-18T05:58:07;39.67;;;19.27;;
1024;SDS011;501;48.214;11.350;2022-12-18T06:00:35;39.93;;;18.40;;
1024;SDS011;501;48.214;11.350;2022-12-18T06:03:06;42.40;;;17.40;;
1024;SDS011;501;48.214;11.350;2022-12-18T06:05:36;41.33;;;17.77;;
1024;SDS011;501;48.214;11.350;2022-12-18T06:08:02;42.20;;;18.97;;
1024;SDS011;501;48.214;11.350;2022-12-18T06:10:28;38.33;;;18.50;;
1024;SDS011;501;48.214;11.350;2022-12-18T06:12:54;32.20;;;17.90;;
1024;SDS011;501;48.214;11.350;2022-12-18T06:15:19;42.20;;;19.10;;
1024;SDS011;501;48.214;11.350;2022-12-18T06:17:45;35.77;;;19.20;;
1024;SDS011;501;48.214;11.350;2022-12-18T06:20:11;35.07;;;17.73;;
1024;SDS011;501;48.214;11.350;2022-12-18T06:22:36;37.20;;;18.20;;
1024;SDS011;501;48.214;11.350;2022-12-18T06:25:02;38.70;;;18.33;;
1024;SDS011;501;48.214;11.350;2022-12-18T06:27:28;39.17;;;18.40;;
1024;SDS011;501;48.214;11.350;2022-12-18T06:29:54;38.03;;;18.73;;
1024;SDS011;501;48.214;11.350;2022-12-18T06:32:19;36.10;;;18.67;;
1024;SDS011;501;48.214;11.350;2022-12-18T06:34:45;33.40;;;19.07;;
1024;SDS011;501;48.214;11.350;2022-12-18T06:37:10;38.70;;;18.73;;
1024;SDS011;501;48.214;11.350;2022-12-18T06:39:36;33.57;;;16.97;;
1024;SDS011;501;48.214;11.350;2022-12-18T06:42:02;36.93;;;17.20;;
1024;SDS011;501;48.214;11.350;2022-12-18T06:44:28;44.20;;;18.30;;
1024;SDS011;501;48.214;11.350;2022-12-18T06:46:54;38.47;;;19.77;;
1024;SDS011;501;48.214;11.350;2022-12-18T06:49:20;41.30;;;18.20;;
1024;SDS011;501;48.214;11.350;2022-12-18T06:51:45;33.83;;;17.73;;
1024;SDS011;501;48.214;11.350;2022-12-18T06:54:11;37.60;;;18.27;;
1024;SDS011;501;48.214;11.350;2022-12-18T06:56:37;33.87;;;19.00;;
1024;SDS011;501;48.214;11.350;2022-12-18T06:59:03;37.00;;;17.60;;
1024;SDS011;501;48.214;11.350;2022-12-18T07:01:29;35.63;;;17.17;;
1024;SDS011;501;48.214;11.350;2022-12-18T07:03:55;34.07;;;18.70;;
1024;SDS011;501;48.214;11.350;2022-12-18T07:06:23;34.53;;;17.93;;
1024;SDS011;501;48.214;11.350;2022-12-18T07:08:50;33.37;;;17.00;;
1024;SDS011;501;48.214;11.350;2022-12-18T07:11:18;36.53;;;17.03;;
1024;SDS011;501;48.214;11.350;2022-12-18T07:13:44;36.87;;;16.43;;
1024;SDS011;501;48.214;11.350;2022-12-18T07:16:14;32.53;;;18.60;;
1024;SDS011;501;48.214;11.350;2022-12-18T07:18:44;29.17;;;15.67;;
1024;SDS011;501;48.214;11.350;2022-12-18T07:21:12;42.63;;;18.50;;
1024;SDS011;501;48.214;11.350;2022-12-18T07:23:39;39.37;;;17.60;;
1024;SDS011;501;48.214;11.350;2022-12-18T07:26:06;31.60;;;17.30;;
1024;SDS011;501;48.214;11.350;2022-12-18T07:28:35;32.63;;;16.37;;
1024;SDS011;501;48.214;11.350;2022-12-18T07:31:12;33.73;;;17.27;;
1024;SDS011;501;48.214;11.350;2022-12-18T07:33:45;34.60;;;15.90;;
1024;SDS011;501;48.214;11.350;2022-12-18T07:36:11;31.87;;;15.80;;
1024;SDS011;501;48.214;11.350;2022-12-18T07:38:38;30.53;;;15.20;;
1024;SDS011;501;48.214;11.350;2022-12-18T07:41:04;40.47;;;18.20;;
1024;SDS011;501;48.214;11.350;2022-12-18T07:43:32;33.33;;;16.00;;
1024;SDS011;501;48.214;11.350;2022-12-18T07:45:58;33.07;;;16.00;;
1024;SDS011;501;48.214;11.350;2022-12-18T07:48:24;31.23;;;17.57;;
1024;SDS011;501;48.214;11.350;2022-12-18T07:50:49;29.33;;;16.83;;
1024;SDS011;501;48.214;11.350;2022-12-18T07:53:15;29.63;;;16.77;;
1024;SDS011;501;48.214;11.350;2022-12-18T07:55:41;31.20;;;15.30;;
1024;SDS011;501;48.214;11.350;2022-12-18T07:58:07;28.73;;;15.60;;
1024;SDS011;501;48.214;11.350;2022-12-18T08:00:33;30.63;;;16.00;;
1024;SDS011;501;48.214;11.350;2022-12-18T08:02:59;33.37;;;16.10;;
1024;SDS011;501;48.214;11.350;2022-12-18T08:05:24;39.40;;;17.17;;
1024;SDS011;501;48.214;11.350;2022-12-18T08:07:50;37.23;;;15.37;;
1024;SDS011;501;48.214;11.350;2022-12-18T08:10:16;36.40;;;17.07;;
1024;SDS011;501;48.214;11.350;2022-12-18T08:12:42;31.00;;;15.80;;
1024;SDS011;501;48.214;11.350;2022-12-18T08:15:08;35.93;;;16.43;;
1024;SDS011;501;48.214;11.350;2022-12-18T08:17:34;34.40;;;16.30;;
1024;SDS011;501;48.214;11.350;2022-12-18T08:19:59;32.63;;;16.40;;
1024;SDS011;501;48.214;11.350;2022-12-18T08:22:25;36.07;;;18.60;;
1024;SDS011;501;48.214;11.350;2022-12-18T08:24:50;35.47;;;17.30;;
1024;SDS011;501;48.214;11.350;2022-12-18T08:27:16;37.87;;;17.63;;
1024;SDS011;501;48.214;11.350;2022-12-18T08:29:42;37.53;;;18.37;;
1024;SDS011;501;48.214;11.350;2022-12-18T08:32:07;37.87;;;18.60;;
1024;SDS011;501;48.214;11.350;2022-12-18T08:34:33;35.00;;;16.00;;
1024;SDS011;501;48.214;11.350;2022-12-18T08:36:59;34.70;;;17.17;;
1024;SDS011;501;48.214;11.350;2022-12-18T08:39:24;32.83;;;17.53;;
1024;SDS011;501;48.214;11.350;2022-12-18T08:41:50;32.17;;;16.77;;
1024;SDS011;501;48.214;11.350;2022-12-18T08:44:34;41.33;;;19.20;;
1024;SDS011;501;48.214;11.350;2022-12-18T08:47:02;33.33;;;16.03;;
1024;SDS011;501;48.214;11.350;2022-12-18T08:49:28;31.83;;;17.50;;
1024;SDS011;501;48.214;11.350;2022-12-18T08:51:54;33.70;;;16.90;;
1024;SDS011;501;48.214;11.350;2022-12-18T08:54:22;37.87;;;18.50;;
1024;SDS011;501;48.214;11.350;2022-12-18T08:56:47;33.20;;;16.97;;
1024;SDS011;501;48.214;11.350;2022-12-18T08:59:14;29.77;;;15.50;;
1024;SDS011;501;48.214;11.350;2022-12-18T09:01:43;30.40;;;15.27;;
1024;SDS011;501;48.214;11.350;2022-12-18T09:04:09;31.63;;;16.30;;
1024;SDS011;501;48.214;11.350;2022-12-18T09:06:35;34.93;;;15.60;;
1024;SDS011;501;48.214;11.350;2022-12-18T09:09:02;38.83;;;18.30;;
1024;SDS011;501;48.214;11.350;2022-12-18T09:11:29;30.30;;;17.00;;
1024;SDS011;501;48.214;11.350;2022-12-18T09:13:55;37.10;;;19.30;;
1024;SDS011;501;48.214;11.350;2022-12-18T09:16:22;27.30;;;16.80;;
1024;SDS011;501;48.214;11.350;2022-12-18T09:18:49;35.40;;;17.57;;
1024;SDS011;501;48.214;11.350;2022-12-18T09:21:16;30.73;;;16.30;;
1024;SDS011;501;48.214;11.350;2022-12-18T09:23:52;31.87;;;15.90;;
1024;SDS011;501;48.214;11.350;2022-12-18T09:26:19;35.10;;;17.60;;
1024;SDS011;501;48.214;11.350;2022-12-18T09:28:45;32.97;;;16.10;;
1024;SDS011;501;48.214;11.350;2022-12-18T09:31:14;40.83;;;18.53;;
1024;SDS011;501;48.214;11.350;2022-12-18T09:33:40;36.27;;;16.57;;
1024;SDS011;501;48.214;11.350;2022-12-18T09:36:07;36.10;;;17.13;;
1024;SDS011;501;48.214;11.350;2022-12-18T09:38:34;33.33;;;17.07;;
1024;SDS011;501;48.214;11.350;2022-12-18T09:41:03;38.50;;;17.43;;
1024;SDS011;501;48.214;11.350;2022-12-18T09:43:50;42.17;;;18.53;;
1024;SDS011;501;48.214;11.350;2022-12-18T09:46:20;37.20;;;16.83;;
1024;SDS011;501;48.214;11.350;2022-12-18T09:48:54;20.63;;;14.07;;
1024;SDS011;501;48.214;11.350;2022-12-18T09:51:26;33.00;;;16.80;;
1024;SDS011;501;48.214;11.350;2022-12-18T09:54:06;35.67;;;18.20;;
1024;SDS011;501;48.214;11.350;2022-12-18T09:56:39;32.30;;;17.60;;
1024;SDS011;501;48.214;11.350;2022-12-18T09:59:09;31.83;;;17.90;;
1024;SDS011;501;48.214;11.350;2022-12-18T10:01:48;32.70;;;16.70;;
1024;SDS011;501;48.214;11.350;2022-12-18T10:04:14;39.83;;;16.27;;
1024;SDS011;501;48.214;11.350;2022-12-18T10:07:01;30.67;;;16.53;;
1024;SDS011;501;48.214;11.350;2022-12-18T10:10:01;31.43;;;17.00;;
1024;SDS011;501;48.214;11.350;2022-12-18T10:15:10;30.47;;;17.57;;
1024;SDS011;501;48.214;11.350;2022-12-18T10:18:23;30.63;;;16.13;;
1024;SDS011;501;48.214;11.350;2022-12-18T10:21:03;34.03;;;16.40;;
1024;SDS011;501;48.214;11.350;2022-12-18T10:23:47;37.63;;;17.73;;
1024;SDS011;501;48.214;11.350;2022-12-18T10:26:26;38.23;;;21.30;;
1024;SDS011;501;48.214;11.350;2022-12-18T10:28:52;32.87;;;17.87;;
1024;SDS011;501;48.214;11.350;2022-12-18T10:31:22;32.57;;;16.30;;
1024;SDS011;501;48.214;11.350;2022-12-18T10:33:49;31.47;;;16.47;;
1024;SDS011;501;48.214;11.350;2022-12-18T10:36:15;33.60;;;17.20;;
1024;SDS011;501;48.214;11.350;2022-12-18T10:38:41;33.27;;;17.57;;
1024;SDS011;501;48.214;11.350;2022-12-18T10:43:47;31.10;;;15.20;;
1024;SDS011;501;48.214;11.350;2022-12-18T10:46:16;36.57;;;17.10;;
1024;SDS011;501;48.214;11.350;2022-12-18T10:51:34;34.13;;;17.80;;
1024;SDS011;501;48.214;11.350;2022-12-18T10:54:03;38.90;;;20.33;;
1024;SDS011;501;48.214;11.350;2022-12-18T10:56:39;31.20;;;16.30;;
1024;SDS011;501;48.214;11.350;2022-12-18T10:59:06;33.33;;;16.73;;
1024;SDS011;501;48.214;11.350;2022-12-18T11:01:56;29.50;;;16.17;;
1024;SDS011;501;48.214;11.350;2022-12-18T11:06:59;40.90;;;21.30;;
1024;SDS011;501;48.214;11.350;2022-12-18T11:09:27;33.53;;;17.80;;
1024;SDS011;501;48.214;11.350;2022-12-18T11:12:05;29.63;;;16.50;;
1024;SDS011;501;48.214;11.350;2022-12-18T11:14:49;34.50;;;17.07;;
1024;SDS011;501;48.214;11.350;2022-12-18T11:17:25;30.90;;;17.10;;
1024;SDS011;501;48.214;11.350;2022-12-18T11:19:57;33.80;;;16.33;;
1024;SDS011;501;48.214;11.350;2022-12-18T11:22:29;33.57;;;16.43;;
1024;SDS011;501;48.214;11.350;2022-12-18T11:27:47;29.60;;;15.77;;
1024;SDS011;501;48.214;11.350;2022-12-18T11:30:31;33.20;;;16.70;;
1024;SDS011;501;48.214;11.350;2022-12-18T11:33:31;30.67;;;15.00;;
1024;SDS011;501;48.214;11.350;2022-12-18T11:35:51;38.07;;;17.60;;
1024;SDS011;501;48.214;11.350;2022-12-18T11:38:30;29.53;;;14.50;;
1024;SDS011;501;48.214;11.350;2022-12-18T11:41:00;31.03;;;15.97;;
1024;SDS011;501;48.214;11.350;2022-12-18T11:46:36;36.30;;;16.30;;
1024;SDS011;501;48.214;11.350;2022-12-18T11:49:12;32.37;;;16.87;;
1024;SDS011;501;48.214;11.350;2022-12-18T11:51:48;27.27;;;16.10;;
1024;SDS011;501;48.214;11.350;2022-12-18T11:54:20;28.27;;;15.53;;
1024;SDS011;501;48.214;11.350;2022-12-18T11:56:48;28.90;;;15.30;;
1024;SDS011;501;48.214;11.350;2022-12-18T12:03:00;33.33;;;16.93;;
1024;SDS011;501;48.214;11.350;2022-12-18T12:07:35;37.43;;;20.23;;
1024;SDS011;501;48.214;11.350;2022-12-18T12:10:15;37.00;;;18.13;;
1024;SDS011;501;48.214;11.350;2022-12-18T12:15:58;43.27;;;21.33;;
1024;SDS011;501;48.214;11.350;2022-12-18T12:21:40;43.20;;;21.40;;
1024;SDS011;501;48.214;11.350;2022-12-18T12:27:49;82.50;;;42.97;;
1024;SDS011;501;48.214;11.350;2022-12-18T12:30:43;43.47;;;23.30;;
1024;SDS011;501;48.214;11.350;2022-12-18T12:36:32;36.83;;;21.23;;
1024;SDS011;501;48.214;11.350;2022-12-18T12:39:11;46.37;;;23.87;;
1024;SDS011;501;48.214;11.350;2022-12-18T12:41:41;42.63;;;21.20;;
1024;SDS011;501;48.214;11.350;2022-12-18T12:44:30;46.03;;;24.07;;
1024;SDS011;501;48.214;11.350;2022-12-18T12:47:16;56.30;;;32.13;;
1024;SDS011;501;48.214;11.350;2022-12-18T12:49:46;48.03;;;23.40;;
1024;SDS011;501;48.214;11.350;2022-12-18T12:55:05;41.20;;;20.67;;
1024;SDS011;501;48.214;11.350;2022-12-18T13:00:34;37.67;;;19.17;;
1024;SDS011;501;48.214;11.350;2022-12-18T13:03:21;31.27;;;18.80;;
1024;SDS011;501;48.214;11.350;2022-12-18T13:08:29;39.17;;;20.80;;
1024;SDS011;501;48.214;11.350;2022-12-18T13:10:57;37.47;;;21.00;;
1024;SDS011;501;48.214;11.350;2022-12-18T13:13:55;58.13;;;34.63;;
1024;SDS011;501;48.214;11.350;2022-12-18T13:16:22;33.10;;;18.90;;
1024;SDS011;501;48.214;11.350;2022-12-18T13:18:50;35.07;;;21.17;;
1024;SDS011;501;48.214;11.350;2022-12-18T13:21:21;53.47;;;29.20;;
1024;SDS011;501;48.214;11.350;2022-12-18T13:23:52;26.60;;;15.20;;
1024;SDS011;501;48.214;11.350;2022-12-18T13:36:44;34.07;;;17.10;;
1024;SDS011;501;48.214;11.350;2022-12-18T13:41:39;34.50;;;17.10;;
1024;SDS011;501;48.214;11.350;2022-12-18T13:46:44;30.30;;;14.67;;
1024;SDS011;501;48.214;11.350;2022-12-18T13:51:41;48.20;;;20.70;;
1024;SDS011;501;48.214;11.350;2022-12-18T13:54:35;28.97;;;16.90;;
1024;SDS011;501;48.214;11.350;2022-12-18T13:57:04;34.07;;;15.47;;
1024;SDS011;501;48.214;11.350;2022-12-18T13:59:35;27.83;;;15.60;;
1024;SDS011;501;48.214;11.350;2022-12-18T14:02:11;28.73;;;15.40;;
1024;SDS011;501;48.214;11.350;2022-12-18T14:04:37;40.03;;;19.83;;
1024;SDS011;501;48.214;11.350;2022-12-18T14:07:04;30.20;;;16.90;;
1024;SDS011;501;48.214;11.350;2022-12-18T14:09:36;24.97;;;15.20;;
1024;SDS011;501;48.214;11.350;2022-12-18T14:12:06;59.70;;;26.57;;
1024;SDS011;501;48.214;11.350;2022-12-18T14:14:57;27.30;;;15.23;;
1024;SDS011;501;48.214;11.350;2022-12-18T14:17:23;29.63;;;14.70;;
1024;SDS011;501;48.214;11.350;2022-12-18T14:19:49;28.60;;;15.00;;
1024;SDS011;501;48.214;11.350;2022-12-18T14:22:20;33.63;;;14.60;;
1024;SDS011;501;48.214;11.350;2022-12-18T14:25:37;29.37;;;14.23;;
1024;SDS011;501;48.214;11.350;2022-12-18T14:27:42;29.53;;;14.70;;
1024;SDS011;501;48.214;11.350;2022-12-18T14:30:43;31.97;;;15.47;;
1024;SDS011;501;48.214;11.350;2022-12-18T14:33:13;29.83;;;15.70;;
1024;SDS011;501;48.214;11.350;2022-12-18T14:35:59;26.10;;;15.00;;
1024;SDS011;501;48.214;11.350;2022-12-18T14:38:39;30.00;;;15.03;;
1024;SDS011;501;48.214;11.350;2022-12-18T14:41:08;30.90;;;16.73;;
1024;SDS011;501;48.214;11.350;2022-12-18T14:43:37;30.90;;;16.20;;
1024;SDS011;501;48.214;11.350;2022-12-18T14:49:03;28.83;;;13.60;;
1024;SDS011;501;48.214;11.350;2022-12-18T14:52:20;27.07;;;14.70;;
1024;SDS011;501;48.214;11.350;2022-12-18T14:54:47;30.07;;;17.57;;
1024;SDS011;501;48.214;11.350;2022-12-18T14:59:41;26.00;;;15.80;;
1024;SDS011;501;48.214;11.350;2022-12-18T15:04:41;34.10;;;15.73;;
1024;SDS011;501;48.214;11.350;2022-12-18T15:07:19;27.20;;;15.57;;
1024;SDS011;501;48.214;11.350;2022-12-18T15:12:43;26.27;;;15.77;;
1024;SDS011;501;48.214;11.350;2022-12-18T15:17:58;23.73;;;14.43;;
1024;SDS011;501;48.214;11.350;2022-12-18T15:20:25;23.90;;;14.47;;
1024;SDS011;501;48.214;11.350;2022-12-18T15:22:51;32.53;;;17.20;;
1024;SDS011;501;48.214;11.350;2022-12-18T15:25:26;25.33;;;15.23;;
1024;SDS011;501;48.214;11.350;2022-12-18T15:27:53;30.60;;;15.83;;
1024;SDS011;501;48.214;11.350;2022-12-18T15:30:20;27.13;;;16.40;;
1024;SDS011;501;48.214;11.350;2022-12-18T15:32:47;32.80;;;15.70;;
1024;SDS011;501;48.214;11.350;2022-12-18T15:35:19;36.20;;;17.47;;
1024;SDS011;501;48.214;11.350;2022-12-18T15:37:52;31.10;;;16.23;;
1024;SDS011;501;48.214;11.350;2022-12-18T15:40:19;32.50;;;17.70;;
1024;SDS011;501;48.214;11.350;2022-12-18T15:42:46;30.70;;;16.77;;
1024;SDS011;501;48.214;11.350;2022-12-18T15:45:31;37.87;;;19.03;;
1024;SDS011;501;48.214;11.350;2022-12-18T15:47:57;33.43;;;18.60;;
1024;SDS011;501;48.214;11.350;2022-12-18T15:50:23;26.60;;;15.80;;
1024;SDS011;501;48.214;11.350;2022-12-18T15:52:49;28.47;;;16.33;;
1024;SDS011;501;48.214;11.350;2022-12-18T15:55:21;29.60;;;18.10;;
1024;SDS011;501;48.214;11.350;2022-12-18T15:58:07;35.73;;;18.73;;
1024;SDS011;501;48.214;11.350;2022-12-18T16:00:34;31.93;;;16.83;;
1024;SDS011;501;48.214;11.350;2022-12-18T16:03:02;34.60;;;17.60;;
1024;SDS011;501;48.214;11.350;2022-12-18T16:05:28;34.90;;;17.10;;
1024;SDS011;501;48.214;11.350;2022-12-18T16:07:55;30.40;;;16.47;;
1024;SDS011;501;48.214;11.350;2022-12-18T16:10:21;35.67;;;17.93;;
1024;SDS011;501;48.214;11.350;2022-12-18T16:12:47;31.03;;;18.20;;
1024;SDS011;501;48.214;11.350;2022-12-18T16:15:13;28.90;;;15.97;;
1024;SDS011;501;48.214;11.350;2022-12-18T16:17:41;28.73;;;16.77;;
1024;SDS011;501;48.214;11.350;2022-12-18T16:20:18;30.77;;;16.13;;
1024;SDS011;501;48.214;11.350;2022-12-18T16:22:45;34.77;;;18.33;;
1024;SDS011;501;48.214;11.350;2022-12-18T16:25:33;29.90;;;16.90;;
1024;SDS011;501;48.214;11.350;2022-12-18T16:27:58;33.40;;;18.60;;
1024;SDS011;501;48.214;11.350;2022-12-18T16:30:25;35.60;;;18.70;;
1024;SDS011;501;48.214;11.350;2022-12-18T16:32:55;38.30;;;18.93;;
1024;SDS011;501;48.214;11.350;2022-12-18T16:35:22;33.07;;;17.73;;
1024;SDS011;501;48.214;11.350;2022-12-18T16:37:49;46.73;;;19.43;;
1024;SDS011;501;48.214;11.350;2022-12-18T16:40:16;34.77;;;20.00;;